Terminal Aerodrome Forecast
Issued by NWS Sioux Falls, SD

Home | Current Version | Previous Version | Text Only | Print | Product List | Glossary On
Versions: 1 2 3 4 5 6 7 8 9 10 11 12 13 14 15 16 17 18 19 20 21 22 23 24 25 26 27 28 29 30 31 32 33
000
FTUS43 KFSD 241144
TAFSUX
TAF
KSUX 241144Z 2412/2512 29012KT P6SM SKC
     FM241330 31017G26KT P6SM BKN025
     FM241700 32016G25KT P6SM SCT035
     FM242300 34011KT P6SM SCT035 BKN080
     FM250200 02004KT P6SM OVC050
     FM250800 08007KT 2SM -SN OVC018
     FM251000 10009KT 1/2SM SN OVC008=

USA.gov is the U.S. government's official web portal to all federal, state and local government web resources and services.